createdAt,value
2022-11-24T00:00:28.882Z,0.00
2022-11-24T00:01:29.066Z,0.00
2022-11-24T00:02:28.950Z,0.00
2022-11-24T00:03:28.887Z,0.00
2022-11-24T00:04:28.837Z,0.00
2022-11-24T00:05:28.882Z,0.00
2022-11-24T00:06:28.807Z,0.00
2022-11-24T00:07:28.820Z,0.00
2022-11-24T00:08:28.738Z,0.00
2022-11-24T00:09:28.770Z,0.00
2022-11-24T00:10:28.747Z,0.00
2022-11-24T00:11:28.778Z,0.00
2022-11-24T00:12:28.699Z,0.00
2022-11-24T00:13:28.716Z,0.00
2022-11-24T00:14:28.688Z,0.00
2022-11-24T00:15:28.692Z,0.00
2022-11-24T00:16:28.707Z,0.00
2022-11-24T00:17:28.658Z,0.00
2022-11-24T00:18:28.642Z,0.00
2022-11-24T00:19:28.660Z,0.00
2022-11-24T00:20:28.624Z,0.00
2022-11-24T00:21:28.588Z,0.00
2022-11-24T00:22:28.656Z,0.00
2022-11-24T00:23:28.590Z,0.00
2022-11-24T00:24:28.573Z,0.00
2022-11-24T00:25:28.574Z,0.00
2022-11-24T00:26:28.623Z,0.00
2022-11-24T00:27:28.522Z,0.00
2022-11-24T00:28:28.533Z,0.00
2022-11-24T00:29:28.511Z,0.00
2022-11-24T00:30:28.593Z,0.00
2022-11-24T00:31:28.585Z,0.00
2022-11-24T00:32:28.476Z,0.00
2022-11-24T00:33:28.485Z,0.00
2022-11-24T00:34:28.441Z,0.00
2022-11-24T00:35:28.410Z,0.00
2022-11-24T00:36:28.395Z,0.00
2022-11-24T00:37:28.405Z,0.00
2022-11-24T00:38:28.380Z,0.00
2022-11-24T00:39:28.390Z,0.00
2022-11-24T00:40:33.592Z,0.00
2022-11-24T00:41:28.349Z,0.00
2022-11-24T00:42:28.448Z,0.00
2022-11-24T00:43:28.328Z,0.00
2022-11-24T00:44:28.291Z,0.00
2022-11-24T00:45:28.317Z,0.00
2022-11-24T00:46:28.449Z,0.00
2022-11-24T00:47:28.297Z,0.00
2022-11-24T00:48:28.276Z,0.00
2022-11-24T00:49:28.264Z,0.00
2022-11-24T00:50:28.208Z,0.00
2022-11-24T00:51:28.242Z,0.00
2022-11-24T00:52:28.226Z,0.00
2022-11-24T00:53:28.240Z,0.00
2022-11-24T00:54:28.202Z,0.00
2022-11-24T00:55:28.197Z,0.00
2022-11-24T00:56:28.162Z,0.00
2022-11-24T00:57:28.160Z,0.00
2022-11-24T00:58:28.127Z,0.00
2022-11-24T00:59:28.137Z,0.00
2022-11-24T01:00:28.118Z,0.00
2022-11-24T01:01:28.152Z,0.00
2022-11-24T01:02:28.118Z,0.00
2022-11-24T01:03:28.138Z,0.00
2022-11-24T01:04:28.044Z,0.00
2022-11-24T01:05:28.066Z,0.00
2022-11-24T01:06:28.016Z,0.00
2022-11-24T01:07:28.077Z,0.00
2022-11-24T01:08:28.040Z,0.00
2022-11-24T01:09:27.988Z,0.00
2022-11-24T01:10:27.995Z,0.00
2022-11-24T01:11:27.980Z,0.00
2022-11-24T01:12:27.945Z,0.00
2022-11-24T01:13:27.942Z,0.00
2022-11-24T01:14:27.936Z,0.00
2022-11-24T01:15:27.948Z,0.00
2022-11-24T01:16:27.955Z,0.00
2022-11-24T01:17:27.875Z,0.00
2022-11-24T01:18:27.879Z,0.00
2022-11-24T01:19:27.874Z,0.00
2022-11-24T01:20:27.905Z,0.00
2022-11-24T01:21:27.848Z,0.00
2022-11-24T01:22:27.860Z,0.00
2022-11-24T01:23:27.828Z,0.00
2022-11-24T01:24:27.781Z,0.00
2022-11-24T01:25:27.862Z,0.00
2022-11-24T01:26:27.776Z,0.00
2022-11-24T01:27:27.765Z,0.00
2022-11-24T01:28:27.794Z,0.00
2022-11-24T01:29:27.763Z,0.00
2022-11-24T01:30:27.732Z,0.00
2022-11-24T01:31:27.784Z,0.00
2022-11-24T01:32:27.684Z,0.00
2022-11-24T01:33:27.712Z,0.00
2022-11-24T01:34:27.686Z,0.00
2022-11-24T01:35:27.676Z,0.00
2022-11-24T01:36:27.654Z,0.00
2022-11-24T01:37:27.726Z,0.00
2022-11-24T01:38:27.628Z,0.00
2022-11-24T01:39:27.666Z,0.00
2022-11-24T01:40:27.593Z,0.00
2022-11-24T01:41:27.616Z,0.00
2022-11-24T01:42:27.585Z,0.00
2022-11-24T01:43:27.578Z,0.00
2022-11-24T01:44:27.571Z,0.00
2022-11-24T01:45:27.561Z,0.00
2022-11-24T01:46:27.571Z,0.00
2022-11-24T01:47:27.612Z,0.00
2022-11-24T01:48:28.358Z,0.00
2022-11-24T01:49:27.507Z,0.00
2022-11-24T01:50:27.547Z,0.00
2022-11-24T01:51:27.474Z,0.00
2022-11-24T01:52:27.856Z,0.00
2022-11-24T01:53:27.441Z,0.00
2022-11-24T01:54:27.425Z,0.00
2022-11-24T01:55:27.443Z,0.00
2022-11-24T01:56:27.428Z,0.00
2022-11-24T01:57:27.411Z,0.00
2022-11-24T01:58:27.396Z,0.00
2022-11-24T01:59:27.357Z,0.00
2022-11-24T02:00:27.362Z,0.00
2022-11-24T02:01:27.408Z,0.00
2022-11-24T02:02:27.405Z,0.00
2022-11-24T02:03:27.315Z,0.00
2022-11-24T02:04:27.349Z,0.00
2022-11-24T02:05:27.294Z,0.00
2022-11-24T02:06:27.267Z,0.00
2022-11-24T02:07:27.357Z,0.00
2022-11-24T02:08:27.297Z,0.00
2022-11-24T02:09:27.265Z,0.00
2022-11-24T02:10:27.251Z,0.00
2022-11-24T02:11:27.224Z,0.00
2022-11-24T02:12:27.214Z,0.00
2022-11-24T02:13:27.175Z,0.00
2022-11-24T02:14:27.197Z,0.00
2022-11-24T02:15:27.180Z,0.00
2022-11-24T02:16:27.143Z,0.00
2022-11-24T02:17:27.165Z,0.00
2022-11-24T02:18:27.130Z,0.00
2022-11-24T02:19:27.149Z,0.00
2022-11-24T02:20:27.087Z,0.00
2022-11-24T02:21:27.092Z,0.00
2022-11-24T02:22:27.085Z,0.00
2022-11-24T02:23:27.082Z,0.00
2022-11-24T02:24:27.060Z,0.00
2022-11-24T02:25:27.038Z,0.00
2022-11-24T02:26:27.000Z,0.00
2022-11-24T02:27:27.034Z,0.00
2022-11-24T02:28:27.024Z,0.00
2022-11-24T02:29:26.996Z,0.00
2022-11-24T02:30:27.040Z,0.00
2022-11-24T02:31:27.054Z,0.00
2022-11-24T02:32:26.938Z,0.00
2022-11-24T02:33:26.924Z,0.00
2022-11-24T02:34:26.937Z,0.00
2022-11-24T02:35:26.928Z,0.00
2022-11-24T02:36:26.904Z,0.00
2022-11-24T02:37:26.886Z,0.00
2022-11-24T02:38:26.861Z,0.00
2022-11-24T02:39:26.866Z,0.00
2022-11-24T02:40:26.868Z,0.00
2022-11-24T02:41:26.878Z,0.00
2022-11-24T02:42:26.856Z,0.00
2022-11-24T02:43:26.819Z,0.00
2022-11-24T02:44:26.784Z,0.00
2022-11-24T02:45:26.803Z,0.00
2022-11-24T02:46:26.858Z,0.00
2022-11-24T02:47:26.765Z,0.00
2022-11-24T02:48:26.791Z,0.00
2022-11-24T02:49:26.728Z,0.00
2022-11-24T02:50:26.736Z,0.00
2022-11-24T02:51:26.739Z,0.00
2022-11-24T02:52:26.704Z,0.00
2022-11-24T02:53:26.714Z,0.00
2022-11-24T02:54:26.735Z,0.00
2022-11-24T02:55:26.662Z,0.00
2022-11-24T02:56:26.691Z,0.00
2022-11-24T02:57:26.711Z,0.00
2022-11-24T02:58:26.712Z,0.00
2022-11-24T02:59:26.672Z,0.00
2022-11-24T03:00:26.640Z,0.00
2022-11-24T03:01:26.636Z,0.00
2022-11-24T03:02:26.637Z,0.00
2022-11-24T03:03:26.616Z,0.00
2022-11-24T03:04:26.578Z,0.00
2022-11-24T03:05:26.544Z,0.00
2022-11-24T03:06:26.562Z,0.00
2022-11-24T03:07:26.579Z,0.00
2022-11-24T03:08:26.504Z,0.00
2022-11-24T03:09:26.508Z,0.00
2022-11-24T03:10:26.500Z,0.00
2022-11-24T03:11:26.454Z,0.00
2022-11-24T03:12:26.428Z,0.00
2022-11-24T03:13:26.438Z,0.00
2022-11-24T03:14:26.414Z,0.00
2022-11-24T03:15:26.449Z,0.00
2022-11-24T03:16:26.445Z,0.00
2022-11-24T03:17:26.372Z,0.00
2022-11-24T03:18:26.372Z,0.00
2022-11-24T03:19:26.348Z,0.00
2022-11-24T03:20:26.347Z,0.00
2022-11-24T03:21:26.327Z,0.00
2022-11-24T03:22:26.312Z,0.00
2022-11-24T03:23:26.303Z,0.00
2022-11-24T03:24:26.296Z,0.00
2022-11-24T03:25:26.291Z,0.00
2022-11-24T03:26:26.265Z,0.00
2022-11-24T03:27:26.259Z,0.00
2022-11-24T03:28:26.237Z,0.00
2022-11-24T03:29:26.213Z,0.00
2022-11-24T03:30:26.244Z,0.00
2022-11-24T03:31:26.275Z,0.00
2022-11-24T03:32:26.163Z,0.00
2022-11-24T03:33:26.191Z,0.00
2022-11-24T03:34:26.168Z,0.00
2022-11-24T03:35:26.195Z,0.00
2022-11-24T03:36:26.139Z,0.00
2022-11-24T03:37:26.155Z,0.00
2022-11-24T03:38:26.120Z,0.00
2022-11-24T03:39:26.109Z,0.00
2022-11-24T03:40:26.090Z,0.00
2022-11-24T03:41:26.061Z,0.00
2022-11-24T03:42:26.046Z,0.00
2022-11-24T03:43:26.064Z,0.00
2022-11-24T03:44:26.044Z,0.00
2022-11-24T03:46:26.067Z,0.00
2022-11-24T03:47:26.062Z,0.00
2022-11-24T03:48:26.035Z,0.00
2022-11-24T03:49:25.963Z,0.00
2022-11-24T03:50:25.951Z,0.00
2022-11-24T03:51:25.941Z,0.00
2022-11-24T03:52:25.964Z,0.00
2022-11-24T03:53:25.931Z,0.00
2022-11-24T03:54:25.899Z,0.00
2022-11-24T03:55:25.951Z,0.00
2022-11-24T03:56:25.890Z,0.00
2022-11-24T03:57:25.888Z,0.00
2022-11-24T03:58:25.852Z,0.00
2022-11-24T03:59:25.853Z,0.00
2022-11-24T04:00:25.833Z,0.00
2022-11-24T04:01:25.817Z,0.00
2022-11-24T04:02:25.870Z,0.00
2022-11-24T04:03:25.802Z,0.00
2022-11-24T04:04:25.824Z,0.00
2022-11-24T04:05:25.809Z,0.00
2022-11-24T04:06:25.779Z,0.00
2022-11-24T04:07:25.791Z,0.00
2022-11-24T04:08:25.713Z,0.00
2022-11-24T04:09:25.723Z,0.00
2022-11-24T04:10:25.704Z,0.00
2022-11-24T04:11:25.709Z,0.00
2022-11-24T04:12:25.685Z,0.00
2022-11-24T04:13:25.665Z,0.00
2022-11-24T04:14:25.678Z,0.00
2022-11-24T04:15:25.628Z,0.00
2022-11-24T04:16:25.665Z,0.00
2022-11-24T04:17:25.630Z,0.00
2022-11-24T04:18:25.717Z,0.00
2022-11-24T04:19:25.592Z,0.00
2022-11-24T04:20:25.598Z,0.00
2022-11-24T04:21:25.606Z,0.00
2022-11-24T04:22:25.597Z,0.00
2022-11-24T04:23:25.550Z,0.00
2022-11-24T04:24:25.542Z,0.00
2022-11-24T04:25:25.504Z,0.00
2022-11-24T04:26:25.560Z,0.00
2022-11-24T04:27:25.504Z,0.00
2022-11-24T04:28:25.471Z,0.00
2022-11-24T04:29:25.479Z,0.00
2022-11-24T04:30:25.454Z,0.00
2022-11-24T04:31:25.542Z,0.00
2022-11-24T04:32:25.520Z,0.00
2022-11-24T04:33:25.411Z,0.00
2022-11-24T04:34:25.423Z,0.00
2022-11-24T04:35:25.370Z,0.00
2022-11-24T04:36:25.363Z,0.00
2022-11-24T04:37:25.355Z,0.00
2022-11-24T04:39:20.001Z,0.00
2022-11-24T04:39:30.738Z,0.00
2022-11-24T04:40:25.321Z,0.00
2022-11-24T04:41:25.407Z,0.00
2022-11-24T04:42:25.328Z,0.00
2022-11-24T04:43:25.287Z,0.00
2022-11-24T04:44:25.280Z,0.00
2022-11-24T04:45:25.276Z,0.00
2022-11-24T04:46:25.330Z,0.00
2022-11-24T04:47:25.229Z,0.00
2022-11-24T04:48:25.242Z,0.00
2022-11-24T04:49:25.219Z,0.00
2022-11-24T04:50:25.255Z,0.00
2022-11-24T04:51:25.194Z,0.00
2022-11-24T04:52:25.162Z,0.00
2022-11-24T04:53:25.171Z,0.00
2022-11-24T04:54:25.137Z,0.00
2022-11-24T04:55:25.144Z,0.00
2022-11-24T04:56:25.154Z,0.00
2022-11-24T04:57:25.108Z,0.00
2022-11-24T04:58:25.116Z,0.00
2022-11-24T04:59:25.085Z,0.00
2022-11-24T05:00:25.129Z,0.00
2022-11-24T05:01:25.073Z,0.00
2022-11-24T05:02:25.061Z,0.00
2022-11-24T05:03:25.048Z,0.00
2022-11-24T05:04:25.129Z,0.00
2022-11-24T05:05:25.025Z,0.00
2022-11-24T05:06:24.993Z,0.00
2022-11-24T05:07:24.982Z,0.00
2022-11-24T05:08:24.995Z,0.00
2022-11-24T05:09:36.938Z,0.00
2022-11-24T05:10:24.930Z,0.00
2022-11-24T05:11:24.920Z,0.00
2022-11-24T05:12:24.895Z,0.00
2022-11-24T05:13:24.895Z,0.00
2022-11-24T05:14:24.932Z,0.00
2022-11-24T05:15:24.853Z,0.00
2022-11-24T05:16:24.882Z,0.00
2022-11-24T05:17:24.856Z,0.00
2022-11-24T05:18:24.823Z,0.00
2022-11-24T05:19:28.486Z,0.00
2022-11-24T05:20:24.800Z,0.00
2022-11-24T05:21:24.788Z,0.00
2022-11-24T05:22:24.784Z,0.00
2022-11-24T05:23:24.774Z,0.00
2022-11-24T05:24:24.750Z,0.00
2022-11-24T05:25:24.773Z,0.00
2022-11-24T05:26:24.739Z,0.00
2022-11-24T05:27:24.729Z,0.00
2022-11-24T05:28:24.732Z,0.00
2022-11-24T05:29:24.673Z,0.00
2022-11-24T05:30:24.667Z,0.00
2022-11-24T05:31:24.747Z,0.00
2022-11-24T05:32:24.634Z,0.00
2022-11-24T05:33:24.635Z,0.00
2022-11-24T05:34:24.658Z,0.00
2022-11-24T05:35:24.596Z,0.00
2022-11-24T05:36:24.609Z,0.00
2022-11-24T05:37:24.585Z,0.00
2022-11-24T05:38:24.615Z,0.00
2022-11-24T05:39:24.547Z,0.00
2022-11-24T05:40:24.541Z,0.00
2022-11-24T05:41:24.523Z,0.00
2022-11-24T05:42:24.530Z,0.00
2022-11-24T05:43:24.504Z,0.00
2022-11-24T05:44:24.495Z,0.00
2022-11-24T05:45:24.465Z,0.00
2022-11-24T05:46:24.495Z,0.00
2022-11-24T05:47:24.436Z,0.00
2022-11-24T05:48:24.438Z,0.00
2022-11-24T05:49:24.453Z,0.00
2022-11-24T05:50:24.436Z,0.00
2022-11-24T05:51:24.453Z,0.00
2022-11-24T05:52:24.393Z,0.00
2022-11-24T05:53:24.363Z,0.00
2022-11-24T05:54:24.357Z,0.00
2022-11-24T05:55:24.362Z,0.00
2022-11-24T05:56:24.339Z,0.00
2022-11-24T05:57:24.333Z,0.00
2022-11-24T05:58:24.347Z,0.00
2022-11-24T05:59:24.308Z,0.00
2022-11-24T06:00:24.270Z,0.00
2022-11-24T06:01:24.303Z,0.00
2022-11-24T06:02:24.371Z,0.00
2022-11-24T06:03:24.302Z,0.00
2022-11-24T06:04:24.249Z,0.00
2022-11-24T06:05:24.208Z,0.00
2022-11-24T06:06:24.189Z,0.00
2022-11-24T06:07:24.287Z,0.00
2022-11-24T06:08:29.553Z,0.00
2022-11-24T06:09:24.177Z,0.00
2022-11-24T06:10:24.160Z,0.00
2022-11-24T06:11:24.127Z,0.00
2022-11-24T06:12:24.140Z,0.00
2022-11-24T06:13:24.198Z,0.00
2022-11-24T06:14:24.100Z,0.00
2022-11-24T06:15:24.079Z,0.00
2022-11-24T06:16:24.130Z,0.00
2022-11-24T06:17:24.056Z,0.00
2022-11-24T06:18:24.061Z,0.00
2022-11-24T06:19:24.031Z,0.00
2022-11-24T06:20:28.279Z,0.00
2022-11-24T06:21:24.023Z,0.00
2022-11-24T06:22:23.994Z,0.00
2022-11-24T06:23:24.012Z,0.00
2022-11-24T06:24:23.980Z,0.00
2022-11-24T06:25:23.974Z,0.00
2022-11-24T06:26:23.970Z,0.00
2022-11-24T06:27:23.948Z,0.00
2022-11-24T06:28:23.938Z,0.00
2022-11-24T06:29:23.941Z,0.00
2022-11-24T06:30:23.922Z,0.00
2022-11-24T06:31:23.937Z,0.00
2022-11-24T06:32:23.892Z,0.00
2022-11-24T06:33:23.880Z,0.00
2022-11-24T06:34:23.892Z,0.00
2022-11-24T06:35:23.848Z,0.00
2022-11-24T06:36:23.863Z,0.00
2022-11-24T06:37:23.806Z,5.62
2022-11-24T06:38:24.482Z,5.62
2022-11-24T06:39:23.780Z,5.62
2022-11-24T06:40:23.785Z,5.62
2022-11-24T06:41:23.833Z,5.62
2022-11-24T06:42:23.750Z,5.62
2022-11-24T06:43:23.758Z,11.25
2022-11-24T06:44:23.780Z,11.25
2022-11-24T06:45:23.753Z,11.25
2022-11-24T06:46:23.844Z,11.25
2022-11-24T06:47:23.804Z,11.25
2022-11-24T06:48:23.704Z,11.25
2022-11-24T06:49:23.694Z,11.25
2022-11-24T06:50:25.218Z,16.88
2022-11-24T06:51:23.660Z,16.88
2022-11-24T06:52:23.677Z,22.50
2022-11-24T06:53:23.716Z,22.50
2022-11-24T06:54:23.675Z,22.50
2022-11-24T06:55:23.596Z,22.50
2022-11-24T06:56:23.652Z,28.12
2022-11-24T06:57:23.589Z,28.12
2022-11-24T06:58:23.563Z,28.12
2022-11-24T06:59:23.550Z,28.12
2022-11-24T07:00:23.532Z,28.12
2022-11-24T07:01:23.636Z,28.12
2022-11-24T07:02:23.479Z,33.75
2022-11-24T07:03:23.530Z,33.75
2022-11-24T07:04:23.484Z,33.75
2022-11-24T07:05:23.521Z,33.75
2022-11-24T07:06:23.456Z,33.75
2022-11-24T07:07:23.504Z,33.75
2022-11-24T07:08:23.408Z,33.75
2022-11-24T07:09:23.392Z,39.38
2022-11-24T07:10:23.380Z,39.38
2022-11-24T07:11:23.372Z,39.38
2022-11-24T07:12:23.364Z,39.38
2022-11-24T07:13:23.331Z,45.00
2022-11-24T07:14:23.340Z,45.00
2022-11-24T07:15:23.313Z,45.00
2022-11-24T07:16:23.343Z,45.00
2022-11-24T07:17:23.302Z,50.62
2022-11-24T07:18:23.326Z,50.62
2022-11-24T07:19:25.220Z,50.62
2022-11-24T07:20:23.295Z,56.25
2022-11-24T07:21:23.294Z,61.88
2022-11-24T07:22:23.466Z,56.25
2022-11-24T07:23:23.258Z,61.88
2022-11-24T07:24:23.281Z,67.50
2022-11-24T07:25:23.209Z,67.50
2022-11-24T07:26:23.294Z,61.88
2022-11-24T07:27:23.255Z,61.88
2022-11-24T07:28:23.202Z,61.88
2022-11-24T07:29:23.260Z,56.25
2022-11-24T07:30:23.175Z,56.25
2022-11-24T07:31:23.238Z,61.88
2022-11-24T07:32:23.354Z,67.50
2022-11-24T07:33:23.205Z,67.50
2022-11-24T07:34:23.175Z,67.50
2022-11-24T07:35:23.080Z,67.50
2022-11-24T07:36:23.167Z,67.50
2022-11-24T07:37:26.758Z,67.50
2022-11-24T07:38:23.186Z,78.75
2022-11-24T07:39:23.087Z,73.12
2022-11-24T07:40:23.059Z,73.12
2022-11-24T07:41:23.011Z,78.75
2022-11-24T07:42:23.112Z,78.75
2022-11-24T07:43:23.104Z,73.12
2022-11-24T07:44:23.804Z,73.12
2022-11-24T07:45:23.038Z,78.75
2022-11-24T07:46:23.291Z,78.75
2022-11-24T07:47:22.991Z,78.75
2022-11-24T07:48:22.886Z,84.38
2022-11-24T07:49:22.897Z,90.00
2022-11-24T07:50:22.889Z,90.00
2022-11-24T07:51:22.996Z,95.62
2022-11-24T07:52:22.856Z,95.62
2022-11-24T07:53:22.856Z,95.62
2022-11-24T07:54:22.819Z,95.62
2022-11-24T07:55:22.814Z,95.62
2022-11-24T07:56:22.790Z,95.62
2022-11-24T07:57:22.797Z,95.62
2022-11-24T07:58:22.797Z,101.25
2022-11-24T07:59:22.813Z,106.88
2022-11-24T08:00:22.817Z,112.50
2022-11-24T08:01:22.764Z,112.50
2022-11-24T08:02:22.762Z,106.88
2022-11-24T08:03:22.812Z,112.50
2022-11-24T08:04:22.733Z,112.50
2022-11-24T08:05:22.727Z,112.50
2022-11-24T08:06:26.157Z,112.50
2022-11-24T08:07:22.776Z,118.12
2022-11-24T08:08:22.681Z,118.12
2022-11-24T08:09:22.646Z,118.12
2022-11-24T08:10:22.814Z,118.12
2022-11-24T08:11:22.654Z,118.12
2022-11-24T08:12:22.601Z,112.50
2022-11-24T08:13:22.624Z,112.50
2022-11-24T08:14:22.620Z,112.50
2022-11-24T08:15:22.621Z,118.12
2022-11-24T08:16:22.583Z,118.12
2022-11-24T08:17:22.523Z,118.12
2022-11-24T08:18:22.538Z,112.50
2022-11-24T08:19:22.507Z,106.88
2022-11-24T08:20:22.499Z,106.88
2022-11-24T08:21:22.640Z,101.25
2022-11-24T08:22:22.525Z,101.25
2022-11-24T08:23:22.488Z,101.25
2022-11-24T08:24:22.520Z,106.88
2022-11-24T08:25:22.486Z,112.50
2022-11-24T08:26:22.440Z,112.50
2022-11-24T08:27:22.445Z,106.88
2022-11-24T08:28:22.407Z,106.88
2022-11-24T08:29:22.427Z,106.88
2022-11-24T08:30:22.420Z,106.88
2022-11-24T08:31:22.423Z,106.88
2022-11-24T08:32:22.681Z,106.88
2022-11-24T08:33:22.377Z,112.50
2022-11-24T08:34:22.583Z,112.50
2022-11-24T08:35:22.282Z,118.12
2022-11-24T08:36:22.313Z,118.12
2022-11-24T08:37:22.305Z,118.12
2022-11-24T08:38:22.336Z,118.12
2022-11-24T08:39:22.247Z,112.50
2022-11-24T08:40:22.263Z,118.12
2022-11-24T08:41:22.250Z,123.75
2022-11-24T08:42:22.279Z,123.75
2022-11-24T08:43:22.180Z,118.12
2022-11-24T08:44:22.192Z,123.75
2022-11-24T08:45:24.687Z,123.75
2022-11-24T08:46:22.233Z,129.38
2022-11-24T08:47:22.178Z,129.38
2022-11-24T08:48:22.141Z,123.75
2022-11-24T08:49:22.293Z,118.12
2022-11-24T08:50:22.091Z,118.12
2022-11-24T08:51:22.075Z,118.12
2022-11-24T08:52:22.071Z,118.12
2022-11-24T08:53:22.078Z,118.12
2022-11-24T08:54:22.077Z,129.38
2022-11-24T08:55:22.058Z,135.00
2022-11-24T08:56:22.040Z,123.75
2022-11-24T08:57:22.137Z,129.38
2022-11-24T08:58:22.010Z,118.12
2022-11-24T08:59:22.043Z,118.12
2022-11-24T09:00:22.134Z,123.75
2022-11-24T09:01:22.015Z,129.38
2022-11-24T09:02:21.964Z,140.62
2022-11-24T09:03:21.956Z,135.00
2022-11-24T09:04:22.016Z,135.00
2022-11-24T09:05:50.233Z,135.00
2022-11-24T09:06:21.926Z,135.00
2022-11-24T09:07:21.935Z,146.25
2022-11-24T09:08:21.853Z,163.12
2022-11-24T09:09:21.848Z,163.12
2022-11-24T09:10:21.887Z,163.12
2022-11-24T09:11:21.856Z,168.75
2022-11-24T09:12:21.845Z,163.12
2022-11-24T09:13:21.809Z,168.75
2022-11-24T09:14:21.807Z,174.38
2022-11-24T09:15:21.755Z,185.62
2022-11-24T09:16:21.828Z,191.25
2022-11-24T09:17:21.732Z,191.25
2022-11-24T09:18:25.173Z,196.88
2022-11-24T09:19:21.713Z,191.25
2022-11-24T09:20:21.791Z,180.00
2022-11-24T09:21:21.695Z,174.38
2022-11-24T09:22:21.666Z,174.38
2022-11-24T09:23:21.654Z,180.00
2022-11-24T09:24:21.660Z,185.62
2022-11-24T09:25:21.636Z,202.50
2022-11-24T09:26:21.657Z,219.38
2022-11-24T09:27:21.623Z,225.00
2022-11-24T09:28:21.609Z,219.38
2022-11-24T09:29:21.589Z,213.75
2022-11-24T09:30:21.666Z,208.12
2022-11-24T09:31:21.651Z,219.38
2022-11-24T09:32:21.564Z,225.00
2022-11-24T09:33:21.532Z,225.00
2022-11-24T09:34:21.557Z,225.00
2022-11-24T09:35:21.502Z,230.62
2022-11-24T09:36:21.545Z,253.12
2022-11-24T09:37:21.497Z,247.50
2022-11-24T09:38:21.524Z,253.12
2022-11-24T09:39:21.445Z,258.75
2022-11-24T09:40:21.546Z,270.00
2022-11-24T09:41:21.412Z,258.75
2022-11-24T09:42:21.449Z,264.38
2022-11-24T09:43:21.416Z,270.00
2022-11-24T09:44:21.399Z,270.00
2022-11-24T09:45:35.653Z,264.38
2022-11-24T09:46:21.411Z,264.38
2022-11-24T09:47:21.369Z,270.00
2022-11-24T09:48:21.346Z,281.25
2022-11-24T09:49:21.317Z,298.12
2022-11-24T09:50:21.313Z,292.50
2022-11-24T09:51:21.302Z,286.88
2022-11-24T09:52:21.269Z,286.88
2022-11-24T09:53:21.278Z,292.50
2022-11-24T09:54:21.268Z,298.12
2022-11-24T09:55:21.227Z,309.38
2022-11-24T09:56:21.227Z,309.38
2022-11-24T09:57:21.226Z,309.38
2022-11-24T09:58:21.223Z,315.00
2022-11-24T09:59:21.201Z,315.00
2022-11-24T10:00:21.214Z,315.00
2022-11-24T10:01:21.256Z,315.00
2022-11-24T10:02:21.143Z,315.00
2022-11-24T10:03:21.129Z,315.00
2022-11-24T10:04:21.148Z,320.62
2022-11-24T10:05:21.130Z,320.62
2022-11-24T10:06:21.094Z,326.25
2022-11-24T10:07:21.168Z,343.12
2022-11-24T10:08:21.079Z,360.00
2022-11-24T10:09:21.055Z,382.50
2022-11-24T10:10:24.738Z,393.75
2022-11-24T10:11:21.061Z,405.00
2022-11-24T10:12:21.025Z,421.88
2022-11-24T10:13:20.988Z,416.25
2022-11-24T10:14:21.009Z,421.88
2022-11-24T10:15:20.990Z,416.25
2022-11-24T10:16:21.085Z,416.25
2022-11-24T10:17:20.939Z,421.88
2022-11-24T10:18:20.941Z,438.75
2022-11-24T10:19:20.927Z,444.38
2022-11-24T10:20:20.970Z,466.88
2022-11-24T10:21:20.910Z,472.50
2022-11-24T10:22:20.892Z,472.50
2022-11-24T10:23:20.881Z,466.88
2022-11-24T10:24:20.871Z,472.50
2022-11-24T10:25:20.844Z,528.75
2022-11-24T10:26:20.877Z,669.38
2022-11-24T10:27:20.823Z,590.62
2022-11-24T10:28:20.821Z,624.38
2022-11-24T10:29:20.788Z,545.62
2022-11-24T10:30:20.789Z,562.50
2022-11-24T10:31:20.830Z,551.25
2022-11-24T10:32:20.801Z,658.12
2022-11-24T10:33:24.289Z,714.38
2022-11-24T10:34:20.759Z,736.88
2022-11-24T10:35:20.721Z,832.50
2022-11-24T10:36:20.716Z,855.00
2022-11-24T10:37:20.696Z,641.25
2022-11-24T10:38:20.700Z,804.38
2022-11-24T10:39:20.675Z,781.88
2022-11-24T10:40:48.663Z,697.50
2022-11-24T10:41:20.653Z,691.88
2022-11-24T10:42:20.616Z,663.75
2022-11-24T10:43:20.637Z,646.88
2022-11-24T10:44:20.614Z,658.12
2022-11-24T10:45:20.583Z,624.38
2022-11-24T10:46:20.633Z,607.50
2022-11-24T10:47:20.555Z,601.88
2022-11-24T10:48:20.577Z,590.62
2022-11-24T10:49:20.694Z,545.62
2022-11-24T10:50:20.755Z,551.25
2022-11-24T10:51:20.525Z,540.00
2022-11-24T10:52:20.503Z,613.12
2022-11-24T10:53:20.524Z,568.12
2022-11-24T10:54:20.481Z,579.38
2022-11-24T10:55:21.680Z,523.12
2022-11-24T10:56:20.470Z,495.00
2022-11-24T10:57:20.431Z,517.50
2022-11-24T10:58:20.417Z,534.38
2022-11-24T10:59:20.455Z,556.88
2022-11-24T11:00:20.443Z,601.88
2022-11-24T11:01:20.466Z,579.38
2022-11-24T11:02:20.479Z,607.50
2022-11-24T11:03:20.762Z,675.00
2022-11-24T11:04:20.407Z,720.00
2022-11-24T11:05:20.375Z,686.25
2022-11-24T11:06:20.347Z,613.12
2022-11-24T11:07:20.432Z,568.12
2022-11-24T11:08:20.327Z,534.38
2022-11-24T11:09:20.365Z,540.00
2022-11-24T11:10:20.269Z,551.25
2022-11-24T11:11:20.328Z,568.12
2022-11-24T11:12:42.922Z,540.00
2022-11-24T11:13:20.261Z,495.00
2022-11-24T11:14:20.253Z,472.50
2022-11-24T11:15:20.210Z,444.38
2022-11-24T11:16:20.270Z,444.38
2022-11-24T11:17:20.171Z,545.62
2022-11-24T11:18:20.184Z,528.75
2022-11-24T11:19:47.225Z,433.12
2022-11-24T11:20:20.143Z,371.25
2022-11-24T11:21:20.118Z,337.50
2022-11-24T11:22:20.093Z,360.00
2022-11-24T11:23:20.080Z,410.62
2022-11-24T11:24:20.082Z,393.75
2022-11-24T11:25:20.086Z,320.62
2022-11-24T11:26:20.096Z,326.25
2022-11-24T11:27:20.039Z,376.88
2022-11-24T11:28:20.016Z,371.25
2022-11-24T11:31:21.835Z,495.00
2022-11-24T11:34:35.156Z,562.50
2022-11-24T11:35:19.961Z,523.12
2022-11-24T11:36:19.960Z,489.38
2022-11-24T11:37:19.946Z,466.88
2022-11-24T11:38:19.950Z,455.62
2022-11-24T11:39:19.904Z,450.00
2022-11-24T11:40:19.947Z,450.00
2022-11-24T11:41:19.884Z,455.62
2022-11-24T11:42:45.443Z,450.00
2022-11-24T11:43:19.859Z,433.12
2022-11-24T11:44:19.857Z,421.88
2022-11-24T11:45:19.817Z,405.00
2022-11-24T11:46:19.887Z,388.12
2022-11-24T11:47:19.812Z,382.50
2022-11-24T11:48:19.801Z,376.88
2022-11-24T11:49:19.732Z,376.88
2022-11-24T11:50:19.805Z,376.88
2022-11-24T11:51:24.247Z,376.88
2022-11-24T11:52:19.843Z,360.00
2022-11-24T11:53:19.683Z,331.88
2022-11-24T11:54:19.728Z,315.00
2022-11-24T11:55:19.706Z,281.25
2022-11-24T11:56:19.718Z,258.75
2022-11-24T11:57:19.667Z,253.12
2022-11-24T11:58:19.646Z,258.75
2022-11-24T11:59:19.613Z,275.62
2022-11-24T12:00:19.617Z,303.75
2022-11-24T12:01:19.618Z,309.38
2022-11-24T12:02:19.774Z,309.38
2022-11-24T12:03:19.692Z,326.25
2022-11-24T12:04:19.645Z,354.38
2022-11-24T12:05:19.583Z,393.75
2022-11-24T12:06:19.595Z,433.12
2022-11-24T12:07:19.648Z,433.12
2022-11-24T12:08:21.522Z,410.62
2022-11-24T12:09:20.956Z,399.38
2022-11-24T12:10:19.474Z,405.00
2022-11-24T12:11:19.482Z,438.75
2022-11-24T12:12:19.457Z,466.88
2022-11-24T12:13:19.433Z,444.38
2022-11-24T12:14:19.453Z,421.88
2022-11-24T12:15:19.440Z,399.38
2022-11-24T12:16:19.458Z,388.12
2022-11-24T12:17:19.401Z,393.75
2022-11-24T12:18:48.380Z,388.12
2022-11-24T12:19:19.370Z,393.75
2022-11-24T12:20:19.373Z,405.00
2022-11-24T12:21:24.804Z,433.12
2022-11-24T12:22:19.361Z,455.62
2022-11-24T12:23:19.551Z,444.38
2022-11-24T12:24:19.445Z,427.50
2022-11-24T12:25:19.325Z,399.38
2022-11-24T12:26:19.323Z,376.88
2022-11-24T12:27:22.924Z,360.00
2022-11-24T12:28:19.296Z,360.00
2022-11-24T12:29:19.245Z,388.12
2022-11-24T12:30:19.280Z,438.75
2022-11-24T12:31:19.276Z,472.50
2022-11-24T12:32:20.230Z,472.50
2022-11-24T12:33:19.199Z,461.25
2022-11-24T12:34:19.207Z,450.00
2022-11-24T12:35:19.177Z,433.12
2022-11-24T12:36:19.226Z,416.25
2022-11-24T12:37:19.206Z,388.12
2022-11-24T12:38:19.174Z,371.25
2022-11-24T12:39:19.166Z,348.75
2022-11-24T12:40:19.086Z,337.50
2022-11-24T12:41:40.338Z,326.25
2022-11-24T12:42:19.085Z,320.62
2022-11-24T12:43:19.148Z,326.25
2022-11-24T12:44:19.046Z,320.62
2022-11-24T12:45:19.062Z,315.00
2022-11-24T12:46:19.527Z,303.75
2022-11-24T12:47:19.001Z,298.12
2022-11-24T12:48:18.960Z,298.12
2022-11-24T12:49:19.010Z,298.12
2022-11-24T12:50:18.974Z,286.88
2022-11-24T12:51:18.958Z,275.62
2022-11-24T12:52:18.925Z,270.00
2022-11-24T12:53:18.986Z,264.38
2022-11-24T12:54:18.883Z,258.75
2022-11-24T12:55:18.917Z,247.50
2022-11-24T12:56:18.909Z,253.12
2022-11-24T12:57:18.894Z,258.75
2022-11-24T12:58:18.951Z,253.12
2022-11-24T12:59:18.913Z,241.88
2022-11-24T13:00:18.962Z,236.25